Time;durP1;ratioP1;P1;durP2;ratioP2;P2;SDS_P1;SDS_P2;PMS_P1;PMS_P2;Temp;Humidity;BMP_temperature;BMP_pressure;BME280_temperature;BME280_humidity;BME280_pressure;Samples;Min_cycle;Max_cycle;Signal;HPM_P1;HPM_P2
2022/06/09 00:00:24;;;;;;;9.90;3.90;;;;;;;;;;5086687;28;20095;-66
2022/06/09 00:02:54;;;;;;;8.30;4.00;;;;;;;;;;5093709;28;20386;-66
2022/06/09 00:05:22;;;;;;;9.60;4.38;;;;;;;;;;5093879;28;20085;-66
2022/06/09 00:07:52;;;;;;;9.93;5.25;;;;;;;;;;5093707;28;20044;-65
2022/06/09 00:10:21;;;;;;;13.73;5.25;;;;;;;;;;5093798;28;20032;-67
2022/06/09 00:12:47;;;;;;;13.07;5.22;;;;;;;;;;5093533;28;20020;-68
2022/06/09 00:15:14;;;;;;;11.48;5.50;;;;;;;;;;5093399;28;20028;-72
2022/06/09 00:17:41;;;;;;;12.93;5.13;;;;;;;;;;5093399;28;20423;-68
2022/06/09 00:20:08;;;;;;;11.98;4.90;;;;;;;;;;5093531;28;20039;-70
2022/06/09 00:22:34;;;;;;;12.73;5.00;;;;;;;;;;5093167;28;20111;-70
2022/06/09 00:24:59;;;;;;;10.18;4.88;;;;;;;;;;5093737;28;20429;-71
2022/06/09 00:27:25;;;;;;;10.20;4.88;;;;;;;;;;5093530;28;20028;-66
2022/06/09 00:29:51;;;;;;;11.40;5.10;;;;;;;;;;5093470;28;20067;-66
2022/06/09 00:32:17;;;;;;;13.10;5.10;;;;;;;;;;5093144;28;20054;-66
2022/06/09 00:34:45;;;;;;;10.00;4.72;;;;;;;;;;5092925;28;20048;-66
2022/06/09 00:37:10;;;;;;;11.60;5.00;;;;;;;;;;5093170;28;20491;-66
2022/06/09 00:39:36;;;;;;;9.25;4.57;;;;;;;;;;5091744;28;20032;-66
2022/06/09 00:42:02;;;;;;;12.57;6.30;;;;;;;;;;5092989;28;20024;-65
2022/06/09 00:44:29;;;;;;;13.93;5.10;;;;;;;;;;5091931;28;20044;-69
2022/06/09 00:47:01;;;;;;;14.48;5.93;;;;;;;;;;5092661;28;20028;-66
2022/06/09 00:49:44;;;;;;;11.40;4.57;;;;;;;;;;5093263;28;20034;-65
2022/06/09 00:52:16;;;;;;;14.13;5.88;;;;;;;;;;5092837;28;20398;-67
2022/06/09 00:54:52;;;;;;;11.85;5.25;;;;;;;;;;5092600;28;20055;-67
2022/06/09 00:57:26;;;;;;;9.85;4.63;;;;;;;;;;5092895;28;20081;-69
2022/06/09 00:59:55;;;;;;;8.82;4.20;;;;;;;;;;5092869;28;20032;-67
2022/06/09 01:02:21;;;;;;;9.93;4.70;;;;;;;;;;5092451;28;20031;-66
2022/06/09 01:04:49;;;;;;;12.38;5.10;;;;;;;;;;5092645;28;20054;-66
2022/06/09 01:07:20;;;;;;;11.80;4.38;;;;;;;;;;5092202;28;20078;-70
2022/06/09 01:09:46;;;;;;;11.65;4.70;;;;;;;;;;5092014;28;20055;-69
2022/06/09 01:12:24;;;;;;;14.55;4.85;;;;;;;;;;5092269;28;20055;-74
2022/06/09 01:14:51;;;;;;;12.88;4.88;;;;;;;;;;5090860;28;20467;-70
2022/06/09 01:17:29;;;;;;;19.30;6.22;;;;;;;;;;5092334;28;20028;-68
2022/06/09 01:20:36;;;;;;;13.93;5.07;;;;;;;;;;5092594;28;20471;-72
2022/06/09 01:23:30;;;;;;;19.58;6.20;;;;;;;;;;5075336;28;20044;-68
2022/06/09 01:25:58;;;;;;;14.35;5.90;;;;;;;;;;5092605;28;20036;-67
2022/06/09 01:28:33;;;;;;;15.55;5.82;;;;;;;;;;5091334;28;20027;-73
2022/06/09 01:31:31;;;;;;;15.80;5.47;;;;;;;;;;5092275;28;20498;-68
2022/06/09 01:34:17;;;;;;;7.47;4.50;;;;;;;;;;5091784;28;20121;-68
2022/06/09 01:36:49;;;;;;;10.45;4.82;;;;;;;;;;5090951;28;20031;-71
2022/06/09 01:39:15;;;;;;;8.43;4.45;;;;;;;;;;5091443;28;20047;-68
2022/06/09 01:41:48;;;;;;;9.63;4.97;;;;;;;;;;5092048;28;20374;-68
2022/06/09 01:44:17;;;;;;;9.65;4.82;;;;;;;;;;5091542;28;20063;-68
2022/06/09 01:46:45;;;;;;;8.68;4.25;;;;;;;;;;5091868;28;20051;-68
2022/06/09 01:49:24;;;;;;;7.47;4.45;;;;;;;;;;5091884;28;20032;-69
2022/06/09 01:51:52;;;;;;;6.18;3.97;;;;;;;;;;5091847;28;20040;-67
2022/06/09 01:54:25;;;;;;;7.13;3.85;;;;;;;;;;5091606;28;20051;-69
2022/06/09 01:57:00;;;;;;;;;;;;;;;;;;5092215;28;20040;-71
2022/06/09 01:59:32;;;;;;;11.10;3.80;;;;;;;;;;5092059;28;19916;-70
2022/06/09 02:02:08;;;;;;;10.27;4.07;;;;;;;;;;5090267;28;20114;-73
2022/06/09 02:05:09;;;;;;;12.50;4.38;;;;;;;;;;5091220;28;20427;-66
2022/06/09 02:07:37;;;;;;;11.73;4.30;;;;;;;;;;5091093;28;20032;-68
2022/06/09 02:10:30;;;;;;;9.02;4.05;;;;;;;;;;5091659;28;20032;-65
2022/06/09 02:13:01;;;;;;;8.88;4.10;;;;;;;;;;5093894;28;20036;-66
2022/06/09 02:15:43;;;;;;;6.40;4.00;;;;;;;;;;5069069;28;20029;-66
2022/06/09 02:18:13;;;;;;;9.07;4.50;;;;;;;;;;5071437;28;20056;-65
2022/06/09 02:20:43;;;;;;;17.48;4.63;;;;;;;;;;5078620;28;20079;-67
2022/06/09 02:23:11;;;;;;;8.98;4.20;;;;;;;;;;5091116;28;20170;-65
2022/06/09 02:25:38;;;;;;;14.23;4.93;;;;;;;;;;5091073;28;20071;-66
2022/06/09 02:28:06;;;;;;;10.18;4.13;;;;;;;;;;5090542;28;20035;-66
2022/06/09 02:30:32;;;;;;;10.95;4.53;;;;;;;;;;5091042;28;20020;-66
2022/06/09 02:32:58;;;;;;;12.70;4.50;;;;;;;;;;5090958;28;20489;-65
2022/06/09 02:35:24;;;;;;;9.30;3.97;;;;;;;;;;5091143;28;20020;-65
2022/06/09 02:37:50;;;;;;;11.10;4.65;;;;;;;;;;5090980;28;20047;-66
2022/06/09 02:40:16;;;;;;;12.70;4.90;;;;;;;;;;5093073;28;20024;-66
2022/06/09 02:42:42;;;;;;;13.15;5.03;;;;;;;;;;5094983;28;20074;-65
2022/06/09 02:45:09;;;;;;;13.30;5.10;;;;;;;;;;5094154;28;20032;-66
2022/06/09 02:47:35;;;;;;;19.65;4.82;;;;;;;;;;5094157;28;20097;-68
2022/06/09 02:50:02;;;;;;;8.82;4.53;;;;;;;;;;5093998;28;20041;-71
2022/06/09 02:52:28;;;;;;;14.95;4.90;;;;;;;;;;5094328;28;20042;-70
2022/06/09 02:54:54;;;;;;;11.75;5.03;;;;;;;;;;5094224;28;20382;-74
2022/06/09 02:57:23;;;;;;;16.38;5.05;;;;;;;;;;5094508;28;20554;-68
2022/06/09 02:59:51;;;;;;;14.88;5.03;;;;;;;;;;5094760;28;20032;-71
2022/06/09 03:02:18;;;;;;;21.10;6.20;;;;;;;;;;5094314;28;20039;-66
2022/06/09 03:04:44;;;;;;;13.70;4.82;;;;;;;;;;5093270;28;20110;-66
2022/06/09 03:07:10;;;;;;;13.02;5.55;;;;;;;;;;5094312;28;20071;-66
2022/06/09 03:09:35;;;;;;;9.07;4.63;;;;;;;;;;5093548;28;20032;-66
2022/06/09 03:12:01;;;;;;;7.80;4.38;;;;;;;;;;5093107;28;20137;-68
2022/06/09 03:14:27;;;;;;;8.60;4.95;;;;;;;;;;5074203;28;20520;-66
2022/06/09 03:16:53;;;;;;;18.70;5.32;;;;;;;;;;5083190;28;20031;-66
2022/06/09 03:19:19;;;;;;;11.57;4.80;;;;;;;;;;5094422;28;20374;-66
2022/06/09 03:21:45;;;;;;;8.57;4.80;;;;;;;;;;5094455;28;20072;-66
2022/06/09 03:24:11;;;;;;;9.63;4.22;;;;;;;;;;5094472;28;20075;-67
2022/06/09 03:26:37;;;;;;;8.02;4.45;;;;;;;;;;5094166;28;20516;-66
2022/06/09 03:29:04;;;;;;;12.38;4.80;;;;;;;;;;5094014;28;20020;-67
2022/06/09 03:31:30;;;;;;;8.32;4.53;;;;;;;;;;5094032;28;20032;-66
2022/06/09 03:33:56;;;;;;;15.07;5.88;;;;;;;;;;5074116;28;20013;-66
2022/06/09 03:36:22;;;;;;;14.35;4.93;;;;;;;;;;5073493;28;20360;-66
2022/06/09 03:38:48;;;;;;;29.38;4.78;;;;;;;;;;5090805;28;20394;-66
2022/06/09 03:41:14;;;;;;;23.23;5.78;;;;;;;;;;5083617;28;20032;-66
2022/06/09 03:43:39;;;;;;;22.83;4.90;;;;;;;;;;5073817;28;20028;-68
2022/06/09 03:46:07;;;;;;;9.18;4.40;;;;;;;;;;5084552;28;20036;-70
2022/06/09 03:48:34;;;;;;;17.35;7.22;;;;;;;;;;5093414;28;20024;-66
2022/06/09 03:51:00;;;;;;;19.23;4.70;;;;;;;;;;5092685;28;20086;-70
2022/06/09 03:53:25;;;;;;;16.83;4.88;;;;;;;;;;5093631;28;20024;-67
2022/06/09 03:55:51;;;;;;;15.18;4.78;;;;;;;;;;5091763;28;20029;-68
2022/06/09 03:58:17;;;;;;;18.40;5.32;;;;;;;;;;5083129;28;20020;-68
2022/06/09 04:00:43;;;;;;;25.13;5.05;;;;;;;;;;5073359;28;20123;-66
2022/06/09 04:03:09;;;;;;;22.05;5.25;;;;;;;;;;5073277;28;20025;-70
2022/06/09 04:05:36;;;;;;;16.92;4.50;;;;;;;;;;5073262;28;20372;-71
2022/06/09 04:08:02;;;;;;;21.17;4.60;;;;;;;;;;5072828;28;20036;-66
2022/06/09 04:10:31;;;;;;;18.48;4.43;;;;;;;;;;5072665;28;20116;-66
2022/06/09 04:12:57;;;;;;;14.95;4.80;;;;;;;;;;5072580;28;20028;-70
2022/06/09 04:15:23;;;;;;;19.15;4.18;;;;;;;;;;5073391;28;20428;-68
2022/06/09 04:17:52;;;;;;;19.10;4.22;;;;;;;;;;5086842;28;20123;-67
2022/06/09 04:20:19;;;;;;;19.70;4.63;;;;;;;;;;5092554;28;20545;-66
2022/06/09 04:22:45;;;;;;;29.40;5.75;;;;;;;;;;5092823;28;20401;-69
2022/06/09 04:25:12;;;;;;;21.05;4.88;;;;;;;;;;5092430;28;20542;-68
2022/06/09 04:27:39;;;;;;;19.02;4.80;;;;;;;;;;5091721;28;20158;-66
2022/06/09 04:30:06;;;;;;;17.23;4.28;;;;;;;;;;5092474;28;20123;-68
2022/06/09 04:32:32;;;;;;;24.50;5.25;;;;;;;;;;5092558;28;20019;-65
2022/06/09 04:34:58;;;;;;;21.42;4.40;;;;;;;;;;5092793;28;20035;-65
2022/06/09 04:37:59;;;;;;;29.58;5.35;;;;;;;;;;5092337;28;20051;-69
2022/06/09 04:40:10;;;;;;;17.58;4.63;;;;;;;;;;5092030;28;20036;-71
2022/06/09 04:42:36;;;;;;;15.00;3.97;;;;;;;;;;5092194;28;20518;-68
2022/06/09 04:45:03;;;;;;;14.23;4.22;;;;;;;;;;5092181;28;20028;-68
2022/06/09 04:47:29;;;;;;;11.85;4.38;;;;;;;;;;5092544;28;20032;-66
2022/06/09 04:49:55;;;;;;;21.10;5.30;;;;;;;;;;5091475;28;20605;-66
2022/06/09 04:52:20;;;;;;;21.08;5.05;;;;;;;;;;5092060;28;20069;-66
2022/06/09 04:54:46;;;;;;;14.63;5.38;;;;;;;;;;5092204;28;20153;-66
2022/06/09 04:57:12;;;;;;;20.80;5.18;;;;;;;;;;5091198;28;20067;-66
2022/06/09 04:59:38;;;;;;;10.55;4.60;;;;;;;;;;5090258;28;20043;-70
2022/06/09 05:02:03;;;;;;;15.52;5.07;;;;;;;;;;5091064;28;20475;-74
2022/06/09 05:04:29;;;;;;;13.70;4.40;;;;;;;;;;5091104;28;20399;-69
2022/06/09 05:06:55;;;;;;;11.63;4.80;;;;;;;;;;5095559;28;20085;-67
2022/06/09 05:09:21;;;;;;;9.35;4.40;;;;;;;;;;5094065;28;20043;-67
2022/06/09 05:11:46;;;;;;;15.10;4.38;;;;;;;;;;5091996;28;20039;-66
2022/06/09 05:14:13;;;;;;;11.90;4.15;;;;;;;;;;5092338;28;20028;-66
2022/06/09 05:16:38;;;;;;;12.48;5.38;;;;;;;;;;5085609;28;20024;-66
2022/06/09 05:19:04;;;;;;;14.75;5.50;;;;;;;;;;5082517;28;20120;-67
2022/06/09 05:21:30;;;;;;;12.05;5.07;;;;;;;;;;5087672;28;20119;-68
2022/06/09 05:23:56;;;;;;;12.07;5.32;;;;;;;;;;5093262;28;20024;-67
2022/06/09 05:26:22;;;;;;;15.68;5.03;;;;;;;;;;5093063;28;20032;-73
2022/06/09 05:28:48;;;;;;;13.70;4.75;;;;;;;;;;5092910;28;20482;-73
2022/06/09 05:31:13;;;;;;;24.45;7.25;;;;;;;;;;5093151;28;20043;-73
2022/06/09 05:33:41;;;;;;;16.90;5.30;;;;;;;;;;5092184;28;20070;-72
2022/06/09 05:36:07;;;;;;;12.38;4.43;;;;;;;;;;5072618;28;20028;-71
2022/06/09 05:46:47;;;;;;;14.32;4.38;;;;;;;;;;5091581;28;20108;-74
2022/06/09 05:49:15;;;;;;;24.00;9.65;;;;;;;;;;5092085;28;20471;-72
2022/06/09 05:51:41;;;;;;;12.65;4.25;;;;;;;;;;5092378;28;20044;-73
2022/06/09 05:54:07;;;;;;;10.13;5.07;;;;;;;;;;5091454;28;20475;-74
2022/06/09 05:56:33;;;;;;;11.82;5.53;;;;;;;;;;5092319;28;20371;-74
2022/06/09 05:58:59;;;;;;;13.95;5.45;;;;;;;;;;5091131;28;20039;-72
2022/06/09 06:01:26;;;;;;;12.52;5.25;;;;;;;;;;5091959;28;20428;-70
2022/06/09 06:03:52;;;;;;;15.82;6.07;;;;;;;;;;5084240;28;20028;-73
2022/06/09 06:06:33;;;;;;;19.15;6.22;;;;;;;;;;5074552;28;20028;-68
2022/06/09 06:09:05;;;;;;;10.68;4.95;;;;;;;;;;5091800;28;20040;-71
2022/06/09 06:11:31;;;;;;;10.07;4.80;;;;;;;;;;5090955;28;20050;-75
2022/06/09 06:13:57;;;;;;;12.50;5.30;;;;;;;;;;5091851;28;20153;-72
2022/06/09 06:16:23;;;;;;;9.73;5.65;;;;;;;;;;5089237;28;20119;-71
2022/06/09 06:18:50;;;;;;;11.82;5.60;;;;;;;;;;5093582;28;20032;-70
2022/06/09 06:21:16;;;;;;;13.98;6.15;;;;;;;;;;5095896;28;20497;-74
2022/06/09 06:23:43;;;;;;;10.80;5.32;;;;;;;;;;5096021;28;20036;-72
2022/06/09 06:26:11;;;;;;;9.23;6.15;;;;;;;;;;5095981;28;20042;-71
2022/06/09 06:28:37;;;;;;;11.32;6.25;;;;;;;;;;5095713;28;20035;-68
2022/06/09 06:31:03;;;;;;;14.20;5.50;;;;;;;;;;5095752;28;20607;-74
2022/06/09 06:33:29;;;;;;;13.20;5.82;;;;;;;;;;5095643;28;20099;-77
2022/06/09 06:35:55;;;;;;;10.73;6.07;;;;;;;;;;5094822;28;20467;-72
2022/06/09 06:38:21;;;;;;;12.63;6.18;;;;;;;;;;5094859;28;20039;-71
2022/06/09 06:40:47;;;;;;;15.02;6.97;;;;;;;;;;5096495;28;20032;-70
2022/06/09 06:43:13;;;;;;;9.80;5.65;;;;;;;;;;5088934;28;20111;-71
2022/06/09 06:45:40;;;;;;;13.55;6.18;;;;;;;;;;5080258;28;20064;-68
2022/06/09 06:48:06;;;;;;;16.13;6.15;;;;;;;;;;5074960;28;20411;-70
2022/06/09 06:50:32;;;;;;;10.10;5.93;;;;;;;;;;5074845;28;20471;-70
2022/06/09 06:52:58;;;;;;;11.60;5.50;;;;;;;;;;5075222;28;20016;-70
2022/06/09 06:55:24;;;;;;;8.95;6.13;;;;;;;;;;5090103;28;20490;-69
2022/06/09 06:57:50;;;;;;;8.15;5.57;;;;;;;;;;5075036;28;20098;-69
2022/06/09 07:00:19;;;;;;;8.30;5.88;;;;;;;;;;5075850;28;20032;-70
2022/06/09 07:02:46;;;;;;;15.95;7.03;;;;;;;;;;5076260;28;20597;-69
2022/06/09 07:05:12;;;;;;;9.35;5.32;;;;;;;;;;5074925;28;20085;-70
2022/06/09 07:07:39;;;;;;;12.68;6.80;;;;;;;;;;5074767;28;20024;-72
2022/06/09 07:10:06;;;;;;;9.32;5.72;;;;;;;;;;5074866;28;20390;-77
2022/06/09 07:12:32;;;;;;;12.82;6.20;;;;;;;;;;5075024;28;20418;-77
2022/06/09 07:14:58;;;;;;;12.73;6.03;;;;;;;;;;5075046;28;20032;-72
2022/06/09 07:17:25;;;;;;;11.00;5.10;;;;;;;;;;5075498;28;20417;-76
2022/06/09 07:19:51;;;;;;;9.40;5.07;;;;;;;;;;5074667;28;20071;-77
2022/06/09 07:22:19;;;;;;;9.02;4.72;;;;;;;;;;5074536;28;20550;-74
2022/06/09 07:24:46;;;;;;;9.55;4.82;;;;;;;;;;5074492;28;20068;-72
2022/06/09 07:27:12;;;;;;;10.25;4.72;;;;;;;;;;5074254;28;20433;-70
2022/06/09 07:29:39;;;;;;;7.60;3.63;;;;;;;;;;5074356;28;20116;-69
2022/06/09 07:32:07;;;;;;;6.45;3.38;;;;;;;;;;5074078;28;20108;-70
2022/06/09 07:34:33;;;;;;;5.93;3.30;;;;;;;;;;5074075;28;20471;-72
2022/06/09 07:36:59;;;;;;;7.55;3.90;;;;;;;;;;5074141;28;20020;-77
2022/06/09 07:39:26;;;;;;;6.18;3.65;;;;;;;;;;5074121;28;20060;-74
2022/06/09 07:41:52;;;;;;;10.88;4.32;;;;;;;;;;5074133;28;20025;-73
2022/06/09 07:44:18;;;;;;;9.43;3.83;;;;;;;;;;5074446;28;20036;-76
2022/06/09 07:46:44;;;;;;;5.38;3.20;;;;;;;;;;5074140;28;20416;-73
2022/06/09 07:49:11;;;;;;;6.85;3.28;;;;;;;;;;5073793;28;20033;-71
2022/06/09 07:51:38;;;;;;;6.82;3.60;;;;;;;;;;5073593;28;20025;-74
2022/06/09 07:54:04;;;;;;;8.15;3.60;;;;;;;;;;5072749;28;20148;-72
2022/06/09 07:56:32;;;;;;;4.38;3.53;;;;;;;;;;5073860;28;20493;-74
2022/06/09 07:59:00;;;;;;;7.13;4.18;;;;;;;;;;5073860;28;20403;-69
2022/06/09 08:01:26;;;;;;;8.00;4.20;;;;;;;;;;5073383;28;20050;-69
2022/06/09 08:03:52;;;;;;;6.72;4.10;;;;;;;;;;5073778;28;20083;-71
2022/06/09 08:06:18;;;;;;;9.10;4.35;;;;;;;;;;5074131;28;20327;-70
2022/06/09 08:08:44;;;;;;;5.65;3.75;;;;;;;;;;5073752;28;20035;-71
2022/06/09 08:11:09;;;;;;;7.32;3.72;;;;;;;;;;5073433;28;20028;-71
2022/06/09 08:13:36;;;;;;;5.70;3.55;;;;;;;;;;5073599;28;20036;-77
2022/06/09 08:16:04;;;;;;;7.75;3.20;;;;;;;;;;5079044;28;20111;-68
2022/06/09 08:18:30;;;;;;;5.80;3.38;;;;;;;;;;5079186;28;20036;-70
2022/06/09 08:20:56;;;;;;;8.68;3.65;;;;;;;;;;5073534;28;20394;-69
2022/06/09 08:23:25;;;;;;;6.97;3.30;;;;;;;;;;5073328;28;20437;-69
2022/06/09 08:25:54;;;;;;;5.82;3.33;;;;;;;;;;5073420;28;20521;-69
2022/06/09 08:28:22;;;;;;;4.63;3.20;;;;;;;;;;5073272;28;20056;-71
2022/06/09 08:30:51;;;;;;;6.72;3.22;;;;;;;;;;5073242;28;20024;-70
2022/06/09 08:33:17;;;;;;;5.60;3.08;;;;;;;;;;5073297;28;20040;-69
2022/06/09 08:35:44;;;;;;;6.72;3.30;;;;;;;;;;5073112;28;20021;-70
2022/06/09 08:38:10;;;;;;;6.53;3.25;;;;;;;;;;5072440;28;20071;-69
2022/06/09 08:41:17;;;;;;;5.05;3.35;;;;;;;;;;5072797;28;20452;-69
2022/06/09 08:43:49;;;;;;;4.00;3.28;;;;;;;;;;5072794;28;20025;-67
2022/06/09 08:46:44;;;;;;;5.83;3.37;;;;;;;;;;5072850;28;20391;-70
2022/06/09 08:49:48;;;;;;;8.05;3.55;;;;;;;;;;5073967;28;20380;-69
2022/06/09 08:52:22;;;;;;;5.75;3.28;;;;;;;;;;5075156;28;20126;-71
2022/06/09 08:54:49;;;;;;;7.35;3.10;;;;;;;;;;5072828;28;20036;-75
2022/06/09 08:57:18;;;;;;;11.13;3.35;;;;;;;;;;5072685;28;20024;-75
2022/06/09 08:59:50;;;;;;;6.50;3.33;;;;;;;;;;5072577;28;20107;-75
2022/06/09 09:02:50;;;;;;;5.88;3.42;;;;;;;;;;5072623;28;20170;-75
2022/06/09 09:05:31;;;;;;;7.43;3.03;;;;;;;;;;5072640;28;20051;-73
2022/06/09 09:08:00;;;;;;;5.70;3.60;;;;;;;;;;5073065;28;20033;-74
2022/06/09 09:10:46;;;;;;;6.95;3.28;;;;;;;;;;5071084;28;20120;-74
2022/06/09 09:13:39;;;;;;;6.22;3.78;;;;;;;;;;5072337;28;20028;-74
2022/06/09 09:16:17;;;;;;;7.55;3.40;;;;;;;;;;5072301;28;20394;-76
2022/06/09 09:18:55;;;;;;;6.65;3.40;;;;;;;;;;5072465;28;20501;-75
2022/06/09 09:21:39;;;;;;;7.47;3.80;;;;;;;;;;5072294;28;20056;-75
2022/06/09 09:24:30;;;;;;;7.38;3.50;;;;;;;;;;5072302;28;20390;-73
2022/06/09 09:27:11;;;;;;;9.70;3.55;;;;;;;;;;5072290;28;20399;-72
2022/06/09 09:29:57;;;;;;;7.45;3.55;;;;;;;;;;5072258;28;20074;-75
2022/06/09 09:32:27;;;;;;;5.80;2.97;;;;;;;;;;5072464;28;20033;-75
2022/06/09 09:34:55;;;;;;;6.97;4.50;;;;;;;;;;5072057;28;20020;-76
2022/06/09 09:37:45;;;;;;;9.07;4.10;;;;;;;;;;5071893;28;20055;-74
2022/06/09 09:40:19;;;;;;;6.60;3.30;;;;;;;;;;5072125;28;20058;-73
2022/06/09 09:42:47;;;;;;;7.82;3.15;;;;;;;;;;5071402;28;20120;-75
2022/06/09 09:45:17;;;;;;;9.43;3.30;;;;;;;;;;5071910;28;20024;-72
2022/06/09 09:47:49;;;;;;;7.22;3.40;;;;;;;;;;5071889;28;20041;-72
2022/06/09 09:50:25;;;;;;;6.82;3.40;;;;;;;;;;5070677;28;20060;-74
2022/06/09 09:53:18;;;;;;;7.47;3.53;;;;;;;;;;5071583;28;20028;-74
2022/06/09 09:56:01;;;;;;;8.20;3.40;;;;;;;;;;5071624;28;20024;-70
2022/06/09 09:58:38;;;;;;;4.97;3.10;;;;;;;;;;5071746;28;20032;-71
2022/06/09 10:01:32;;;;;;;6.28;3.00;;;;;;;;;;5073733;28;20498;-73
2022/06/09 10:09:41;;;;;;;6.05;3.10;;;;;;;;;;5091793;28;20036;-69
2022/06/09 10:12:16;;;;;;;8.73;3.20;;;;;;;;;;5091768;28;20036;-72
2022/06/09 10:15:01;;;;;;;5.60;3.22;;;;;;;;;;5091526;28;20040;-70
2022/06/09 10:17:43;;;;;;;7.55;3.15;;;;;;;;;;5091680;28;20111;-69
2022/06/09 10:20:37;;;;;;;7.75;3.20;;;;;;;;;;5089995;28;20119;-72
2022/06/09 10:23:09;;;;;;;6.68;2.78;;;;;;;;;;5091722;28;20147;-69
2022/06/09 10:25:59;;;;;;;4.63;2.60;;;;;;;;;;5081904;28;20029;-69
2022/06/09 10:28:59;;;;;;;4.10;2.80;;;;;;;;;;5082818;28;20036;-71
2022/06/09 10:31:39;;;;;;;3.80;2.40;;;;;;;;;;5091621;28;20060;-71
2022/06/09 10:34:18;;;;;;;5.15;2.80;;;;;;;;;;5107155;28;20400;-69
2022/06/09 10:36:56;;;;;;;6.00;3.00;;;;;;;;;;5106976;28;20039;-69
2022/06/09 10:39:31;;;;;;;5.53;2.92;;;;;;;;;;5091587;28;20031;-73
2022/06/09 10:42:11;;;;;;;5.40;2.88;;;;;;;;;;5093420;28;20020;-76
2022/06/09 10:44:52;;;;;;;6.72;2.97;;;;;;;;;;5095500;28;20038;-72
2022/06/09 10:56:33;;;;;;;7.45;3.17;;;;;;;;;;5091742;28;20107;-76
2022/06/09 10:59:16;;;;;;;4.90;2.80;;;;;;;;;;5091531;28;20367;-77
2022/06/09 11:01:42;;;;;;;5.60;2.60;;;;;;;;;;5094041;28;20032;-72
2022/06/09 11:04:14;;;;;;;9.05;2.92;;;;;;;;;;5095076;28;20428;-78
2022/06/09 11:06:46;;;;;;;9.70;3.63;;;;;;;;;;5094889;28;20081;-74
2022/06/09 11:09:15;;;;;;;8.98;2.95;;;;;;;;;;5095003;28;20450;-70
2022/06/09 11:12:14;;;;;;;7.45;3.08;;;;;;;;;;5094869;28;20057;-76
2022/06/09 11:14:46;;;;;;;7.35;2.95;;;;;;;;;;5095146;28;20066;-70
2022/06/09 11:17:30;;;;;;;7.05;2.80;;;;;;;;;;5095126;28;20044;-70
2022/06/09 11:20:17;;;;;;;8.50;2.90;;;;;;;;;;5095011;28;20040;-68
2022/06/09 11:23:18;;;;;;;4.30;2.60;;;;;;;;;;5094890;28;20054;-75
2022/06/09 11:26:12;;;;;;;5.75;2.70;;;;;;;;;;5073144;28;20113;-72
2022/06/09 11:28:54;;;;;;;7.60;2.70;;;;;;;;;;5072383;28;20090;-73
2022/06/09 11:31:32;;;;;;;5.65;3.25;;;;;;;;;;5074997;28;20062;-74
2022/06/09 11:34:33;;;;;;;11.00;3.83;;;;;;;;;;5074863;28;20028;-69
2022/06/09 11:37:13;;;;;;;7.97;2.83;;;;;;;;;;5074947;28;20039;-73
2022/06/09 11:40:05;;;;;;;7.32;3.03;;;;;;;;;;5075124;28;20043;-70
2022/06/09 11:42:51;;;;;;;8.70;3.85;;;;;;;;;;5074411;28;20040;-71
2022/06/09 11:45:29;;;;;;;6.57;2.35;;;;;;;;;;5074672;28;20460;-69
2022/06/09 11:47:58;;;;;;;6.80;2.70;;;;;;;;;;5077012;28;20033;-68
2022/06/09 11:50:34;;;;;;;4.57;2.50;;;;;;;;;;5085770;28;20052;-70
2022/06/09 11:53:01;;;;;;;13.73;2.60;;;;;;;;;;5094765;28;20028;-68
2022/06/09 11:55:57;;;;;;;4.50;2.63;;;;;;;;;;5094548;28;20399;-69
2022/06/09 11:58:35;;;;;;;6.07;2.60;;;;;;;;;;5094542;28;20036;-69
2022/06/09 12:01:16;;;;;;;7.32;3.05;;;;;;;;;;5095187;28;20032;-69
2022/06/09 12:04:06;;;;;;;6.80;3.13;;;;;;;;;;5094432;28;20020;-70
2022/06/09 12:06:47;;;;;;;4.50;2.55;;;;;;;;;;5094558;28;20039;-70
2022/06/09 12:09:30;;;;;;;14.38;3.28;;;;;;;;;;5094627;28;20075;-69
2022/06/09 12:12:00;;;;;;;4.68;2.55;;;;;;;;;;5094131;28;20372;-69
2022/06/09 12:14:33;;;;;;;9.20;2.72;;;;;;;;;;5094213;28;20470;-70
2022/06/09 12:17:11;;;;;;;10.50;3.20;;;;;;;;;;5094261;28;20032;-69
2022/06/09 12:19:57;;;;;;;15.18;3.08;;;;;;;;;;5094327;28;20486;-69
2022/06/09 12:22:32;;;;;;;13.98;3.00;;;;;;;;;;5093926;28;20127;-70
2022/06/09 12:25:16;;;;;;;10.95;3.40;;;;;;;;;;5094436;28;20413;-69
2022/06/09 12:27:49;;;;;;;7.68;2.92;;;;;;;;;;5094415;28;20479;-75
2022/06/09 12:30:15;;;;;;;;;;;;;;;;;;5094435;28;20036;-74
2022/06/09 12:32:44;;;;;;;5.75;2.45;;;;;;;;;;5094097;28;19958;-71
2022/06/09 12:35:32;;;;;;;7.50;1.65;;;;;;;;;;5095103;28;20036;-75
2022/06/09 12:38:05;;;;;;;4.22;1.90;;;;;;;;;;5094154;28;20032;-74
2022/06/09 12:40:51;;;;;;;;;;;;;;;;;;5094107;28;20020;-75
2022/06/09 12:43:42;;;;;;;14.20;2.42;;;;;;;;;;5093881;28;19977;-70
2022/06/09 12:46:22;;;;;;;10.23;3.00;;;;;;;;;;5093853;28;20038;-76
2022/06/09 12:48:49;;;;;;;12.60;2.90;;;;;;;;;;5092501;28;20032;-75
2022/06/09 12:51:22;;;;;;;9.05;2.63;;;;;;;;;;5093975;28;20056;-73
2022/06/09 12:54:20;;;;;;;9.27;2.88;;;;;;;;;;5093917;28;20024;-76
2022/06/09 12:56:59;;;;;;;11.70;3.47;;;;;;;;;;5093343;28;20439;-72
2022/06/09 12:59:33;;;;;;;9.75;2.90;;;;;;;;;;5093580;28;20032;-73
2022/06/09 13:02:27;;;;;;;6.97;2.47;;;;;;;;;;5092872;28;20077;-74
2022/06/09 13:04:58;;;;;;;6.28;2.40;;;;;;;;;;5092537;28;20382;-75
2022/06/09 13:07:29;;;;;;;4.22;2.00;;;;;;;;;;5093246;28;20050;-78
2022/06/09 13:10:19;;;;;;;5.78;2.38;;;;;;;;;;5093085;28;20490;-77
2022/06/09 13:12:50;;;;;;;15.15;7.80;;;;;;;;;;5093276;28;20419;-75
2022/06/09 13:15:38;;;;;;;22.42;8.05;;;;;;;;;;5093601;28;20107;-75
2022/06/09 13:18:12;;;;;;;9.65;3.35;;;;;;;;;;5093532;28;20375;-74
2022/06/09 13:20:40;;;;;;;5.70;2.42;;;;;;;;;;5093245;28;20355;-75
2022/06/09 13:23:10;;;;;;;6.43;2.47;;;;;;;;;;5093029;28;20036;-72
2022/06/09 13:25:36;;;;;;;3.13;2.00;;;;;;;;;;5093322;28;20116;-74
2022/06/09 13:28:04;;;;;;;5.95;2.17;;;;;;;;;;5091616;28;20526;-76
2022/06/09 13:30:51;;;;;;;6.70;2.20;;;;;;;;;;5092909;28;20048;-74
2022/06/09 13:33:34;;;;;;;6.13;2.70;;;;;;;;;;5088860;28;20028;-71
2022/06/09 13:36:18;;;;;;;7.53;2.85;;;;;;;;;;5082411;28;20033;-73
2022/06/09 13:38:44;;;;;;;5.68;2.40;;;;;;;;;;5072351;28;20533;-71
2022/06/09 13:41:29;;;;;;;5.82;2.53;;;;;;;;;;5072013;28;20024;-72
2022/06/09 13:44:07;;;;;;;5.28;2.58;;;;;;;;;;5072170;28;20387;-72
2022/06/09 13:46:52;;;;;;;3.72;2.17;;;;;;;;;;5072060;28;20039;-73
2022/06/09 13:49:25;;;;;;;4.10;2.28;;;;;;;;;;5071809;28;20067;-71
2022/06/09 13:51:51;;;;;;;;;;;;;;;;;;5072642;28;20048;-69
2022/06/09 13:54:27;;;;;;;7.47;2.53;;;;;;;;;;5072164;28;20409;-71
2022/06/09 13:56:53;;;;;;;6.25;2.33;;;;;;;;;;5072091;28;20063;-71
2022/06/09 13:59:20;;;;;;;3.17;2.28;;;;;;;;;;5073306;28;20439;-70
2022/06/09 14:01:48;;;;;;;4.93;2.20;;;;;;;;;;5082074;28;20045;-72
2022/06/09 14:04:20;;;;;;;4.22;2.35;;;;;;;;;;5072094;28;20024;-71
2022/06/09 14:06:46;;;;;;;7.27;2.50;;;;;;;;;;5072444;28;20029;-72
2022/06/09 14:09:14;;;;;;;5.57;2.30;;;;;;;;;;5078955;28;20670;-71
2022/06/09 14:11:40;;;;;;;6.72;2.60;;;;;;;;;;5092168;28;20036;-75
2022/06/09 14:14:06;;;;;;;5.18;2.20;;;;;;;;;;5092070;28;20023;-72
2022/06/09 14:16:37;;;;;;;4.22;2.40;;;;;;;;;;5092004;28;20115;-75
2022/06/09 14:19:05;;;;;;;6.03;2.45;;;;;;;;;;5092154;28;20053;-74
2022/06/09 14:21:32;;;;;;;6.07;2.67;;;;;;;;;;5092078;28;20046;-72
2022/06/09 14:24:03;;;;;;;5.88;2.28;;;;;;;;;;5092283;28;20028;-74
2022/06/09 14:26:36;;;;;;;5.70;2.30;;;;;;;;;;5092046;28;20032;-71
2022/06/09 14:29:05;;;;;;;4.68;2.45;;;;;;;;;;5092020;28;20048;-71
2022/06/09 14:31:32;;;;;;;5.70;2.75;;;;;;;;;;5092193;28;20024;-74
2022/06/09 14:34:00;;;;;;;5.18;2.30;;;;;;;;;;5092412;28;20039;-73
2022/06/09 14:36:27;;;;;;;6.10;2.40;;;;;;;;;;5094437;28;20027;-74
2022/06/09 14:38:58;;;;;;;7.47;2.33;;;;;;;;;;5096041;28;20076;-72
2022/06/09 14:41:27;;;;;;;5.65;2.65;;;;;;;;;;5094590;28;20058;-73
2022/06/09 14:43:53;;;;;;;5.65;2.65;;;;;;;;;;5096123;28;20409;-72
2022/06/09 14:46:26;;;;;;;4.65;2.70;;;;;;;;;;5094365;28;20032;-72
2022/06/09 14:48:52;;;;;;;;;;;;;;;;;;5088876;28;20070;-71
2022/06/09 14:51:19;;;;;;;4.90;2.78;;;;;;;;;;5074000;28;19916;-71
2022/06/09 14:53:47;;;;;;;5.25;2.83;;;;;;;;;;5074479;28;20036;-71
2022/06/09 14:56:16;;;;;;;7.47;2.88;;;;;;;;;;5075323;28;20024;-73
2022/06/09 14:58:42;;;;;;;7.28;2.72;;;;;;;;;;5075900;28;20536;-72
2022/06/09 15:01:12;;;;;;;6.28;3.10;;;;;;;;;;5075498;28;20066;-71
2022/06/09 15:03:38;;;;;;;6.32;2.85;;;;;;;;;;5075190;28;20039;-70
2022/06/09 15:06:05;;;;;;;7.03;2.80;;;;;;;;;;5075305;28;20132;-69
2022/06/09 15:08:36;;;;;;;6.28;2.67;;;;;;;;;;5075356;28;20025;-71
2022/06/09 15:11:06;;;;;;;6.00;2.97;;;;;;;;;;5082719;28;20032;-72
2022/06/09 15:13:32;;;;;;;4.65;3.00;;;;;;;;;;5095603;28;20096;-70
2022/06/09 15:16:01;;;;;;;5.63;2.97;;;;;;;;;;5094176;28;20412;-70
2022/06/09 15:18:29;;;;;;;5.03;3.20;;;;;;;;;;5095404;28;20040;-72
2022/06/09 15:20:56;;;;;;;6.22;3.72;;;;;;;;;;5094966;28;20051;-70
2022/06/09 15:23:22;;;;;;;4.72;3.45;;;;;;;;;;5093732;28;20036;-70
2022/06/09 15:25:48;;;;;;;6.20;2.70;;;;;;;;;;5094822;28;20030;-69
2022/06/09 15:28:20;;;;;;;12.73;2.72;;;;;;;;;;5094666;28;20043;-70